Time;durP1;ratioP1;P1;durP2;ratioP2;P2;SDS_P1;SDS_P2;PMS_P1;PMS_P2;Temp;Humidity;BMP_temperature;BMP_pressure;BME280_temperature;BME280_humidity;BME280_pressure;Samples;Min_cycle;Max_cycle;Signal;HPM_P1;HPM_P2
2023/03/17 00:01:02;;;;;;;;;6.00;6.00;;;;;10.92;56.71;100377.22;5140776;27;45468;-65
2023/03/17 00:03:28;;;;;;;;;7.00;7.00;;;;;10.96;57.07;100397.28;5141467;27;45573;-65
2023/03/17 00:05:56;;;;;;;;;7.00;6.67;;;;;10.92;57.42;100395.66;5141152;27;45319;-65
2023/03/17 00:08:30;;;;;;;;;8.00;6.00;;;;;10.91;57.53;100395.69;5139471;27;45449;-65
2023/03/17 00:10:56;;;;;;;;;5.00;3.00;;;;;10.89;57.02;100393.09;5139935;27;45350;-65
2023/03/17 00:13:22;;;;;;;;;6.00;6.00;;;;;10.90;57.16;100392.19;5140861;27;45337;-65
2023/03/17 00:15:53;;;;;;;;;6.00;6.00;;;;;10.91;57.60;100395.69;5141247;27;45303;-65
2023/03/17 00:18:19;;;;;;;;;7.00;6.00;;;;;10.92;57.30;100400.03;5140741;27;46253;-65
2023/03/17 00:20:45;;;;;;;;;7.67;7.00;;;;;10.87;57.52;100394.91;5140480;27;45331;-65
2023/03/17 00:23:18;;;;;;;;;7.00;7.00;;;;;10.90;57.46;100394.81;5140919;27;45420;-65
2023/03/17 00:25:45;;;;;;;;;7.00;7.00;;;;;10.91;57.07;100386.00;5140895;27;45548;-65
2023/03/17 00:28:22;;;;;;;;;6.00;4.67;;;;;10.92;56.81;100387.75;5140396;27;47023;-65
2023/03/17 00:30:57;;;;;;;;;12.33;8.00;;;;;10.92;57.36;100389.50;5140319;27;45333;-65
2023/03/17 00:33:25;;;;;;;;;6.33;6.33;;;;;10.85;57.41;100362.50;5140782;27;45401;-65
2023/03/17 00:35:51;;;;;;;;;9.00;8.00;;;;;10.91;57.73;100372.84;5140889;27;45433;-65
2023/03/17 00:38:19;;;;;;;;;5.00;5.00;;;;;10.91;57.25;100369.34;5139898;27;46306;-65
2023/03/17 00:40:45;;;;;;;;;8.67;8.00;;;;;10.84;58.20;100354.66;5139392;27;45374;-65
2023/03/17 00:43:11;;;;;;;;;7.00;5.67;;;;;10.91;58.16;100361.44;5140369;27;45266;-65
2023/03/17 00:45:38;;;;;;;;;7.67;7.00;;;;;10.90;58.27;100357.09;5140491;27;45461;-65
2023/03/17 00:48:12;;;;;;;;;7.00;6.00;;;;;10.96;57.96;100357.78;5140273;27;47523;-63
2023/03/17 00:50:38;;;;;;;;;6.33;6.33;;;;;10.96;57.59;100363.03;5139992;27;45445;-64
2023/03/17 00:53:09;;;;;;;;;6.67;6.00;;;;;10.96;57.75;100357.78;5140418;27;45383;-64
2023/03/17 00:55:35;;;;;;;;;4.67;4.00;;;;;10.89;58.46;100347.44;5140464;27;45433;-63
2023/03/17 00:58:00;;;;;;;;;7.67;7.67;;;;;10.89;57.42;100347.44;5139834;27;45829;-63
2023/03/17 01:00:28;;;;;;;;;6.00;5.67;;;;;10.85;58.14;100345.81;5139889;27;45310;-63
2023/03/17 01:02:55;;;;;;;;;9.00;7.67;;;;;10.90;58.04;100343.91;5140154;27;45236;-63
2023/03/17 01:05:23;;;;;;;;;8.33;7.00;;;;;10.87;57.94;100339.59;5140217;27;45312;-63
2023/03/17 01:07:51;;;;;;;;;9.33;8.67;;;;;10.85;57.96;100358.97;5139583;27;46600;-63
2023/03/17 01:10:27;;;;;;;;;11.33;8.67;;;;;10.84;58.02;100350.22;5121244;27;45476;-63
2023/03/17 01:12:56;;;;;;;;;7.67;7.67;;;;;10.79;58.25;100337.19;5139623;27;45291;-63
2023/03/17 01:15:24;;;;;;;;;9.67;8.33;;;;;10.74;58.25;100339.09;5140127;27;45530;-63
2023/03/17 01:17:51;;;;;;;;;7.33;6.33;;;;;10.73;58.06;100349.69;5139762;27;46393;-63
2023/03/17 01:20:20;;;;;;;;;9.00;7.00;;;;;10.77;58.19;100357.44;5139802;27;45471;-63
2023/03/17 01:22:46;;;;;;;;;7.00;7.00;;;;;10.75;57.81;100359.25;5139880;27;45356;-63
2023/03/17 01:25:13;;;;;;;;;7.00;7.00;;;;;10.70;57.86;100353.25;5139938;27;45319;-63
2023/03/17 01:27:40;;;;;;;;;9.33;7.00;;;;;10.67;57.93;100363.03;5139639;27;46979;-63
2023/03/17 01:30:09;;;;;;;;;8.00;7.33;;;;;10.63;58.08;100354.38;5139417;27;45261;-63
2023/03/17 01:32:34;;;;;;;;;7.00;7.00;;;;;10.54;58.94;100341.47;5139568;27;45330;-63
2023/03/17 01:35:00;;;;;;;;;7.67;6.33;;;;;10.59;58.34;100347.47;5140022;27;45279;-62
2023/03/17 01:37:25;;;;;;;;;6.00;5.67;;;;;10.44;58.60;100328.59;5139423;27;45274;-62
2023/03/17 01:39:51;;;;;;;;;7.67;7.67;;;;;10.52;58.57;100344.16;5118560;27;45304;-62
2023/03/17 01:42:17;;;;;;;;;8.00;7.00;;;;;10.50;59.07;100345.09;5118721;27;45300;-63
2023/03/17 01:45:29;;;;;;;;;8.67;7.67;;;;;10.44;58.97;100339.13;5118945;27;45500;-64
2023/03/17 01:47:54;;;;;;;;;9.33;8.00;;;;;10.41;59.25;100328.69;5118507;27;46204;-63
2023/03/17 01:50:19;;;;;;;;;11.00;7.00;;;;;10.45;59.59;100337.34;5118269;27;45509;-63
2023/03/17 01:52:46;;;;;;;;;8.00;7.67;;;;;10.41;59.31;100333.94;5118799;27;45331;-63
2023/03/17 01:55:16;;;;;;;;;10.33;8.00;;;;;10.39;59.27;100332.25;5118861;27;45428;-64
2023/03/17 01:57:41;;;;;;;;;11.33;7.33;;;;;10.42;59.75;100347.94;5118380;27;46164;-64
2023/03/17 02:00:11;;;;;;;;;10.00;8.33;;;;;10.42;59.63;100338.28;5117612;27;45391;-64
2023/03/17 02:02:42;;;;;;;;;6.00;6.00;;;;;10.42;59.58;100348.81;5118565;27;45201;-63
2023/03/17 02:05:10;;;;;;;;;8.67;5.67;;;;;10.36;59.66;100332.34;5118633;27;45283;-63
2023/03/17 02:07:37;;;;;;;;;7.33;7.33;;;;;10.41;59.98;100354.09;5118290;27;46369;-63
2023/03/17 02:10:04;;;;;;;;;6.67;6.33;;;;;10.38;59.16;100352.44;5118251;27;45368;-63
2023/03/17 02:12:30;;;;;;;;;7.00;7.00;;;;;10.38;59.17;100357.72;5118607;27;45304;-63
2023/03/17 02:14:56;;;;;;;;;7.00;7.00;;;;;10.27;59.44;100350.06;5118493;27;45523;-63
2023/03/17 02:17:23;;;;;;;;;8.33;8.00;;;;;10.33;59.35;100361.34;5118194;27;45581;-63
2023/03/17 02:19:49;;;;;;;;;7.67;6.67;;;;;10.30;59.65;100351.75;5118499;27;45301;-63
2023/03/17 02:22:17;;;;;;;;;7.00;7.00;;;;;10.33;59.30;100354.31;5118194;27;45591;-64
2023/03/17 02:24:50;;;;;;;;;12.33;8.67;;;;;10.30;59.53;100346.50;5118389;27;45526;-64
2023/03/17 02:27:20;;;;;;;;;7.00;7.00;;;;;10.25;59.61;100349.28;5118262;27;45529;-63
2023/03/17 02:29:46;;;;;;;;;7.33;7.33;;;;;10.35;59.14;100362.19;5118006;27;45377;-63
2023/03/17 02:32:13;;;;;;;;;8.00;6.67;;;;;10.30;59.37;100349.13;5118297;27;45443;-63
2023/03/17 02:34:39;;;;;;;;;9.33;8.00;;;;;10.29;59.10;100340.34;5118302;27;45467;-63
2023/03/17 02:37:06;;;;;;;;;6.33;6.33;;;;;10.29;59.23;100343.00;5117828;27;46403;-63
2023/03/17 02:39:32;;;;;;;;;8.00;6.00;;;;;10.23;59.90;100334.41;5118048;27;45323;-63
2023/03/17 02:41:57;;;;;;;;;12.33;9.00;;;;;10.32;60.12;100347.31;5117249;27;45292;-64
2023/03/17 02:44:23;;;;;;;;;7.00;5.33;;;;;10.31;59.46;100353.50;5118018;27;45375;-64
2023/03/17 02:46:49;;;;;;;;;8.33;7.67;;;;;10.09;59.80;100322.53;5117979;27;45470;-64
2023/03/17 02:49:15;;;;;;;;;5.67;5.00;;;;;10.21;60.12;100345.00;5117781;27;45319;-64
2023/03/17 02:51:40;;;;;;;;;7.00;7.00;;;;;10.20;60.03;100352.94;5117943;27;45381;-64
2023/03/17 02:54:06;;;;;;;;;8.67;8.67;;;;;10.20;60.18;100347.66;5118162;27;45440;-64
2023/03/17 02:56:31;;;;;;;;;10.33;8.67;;;;;10.16;60.44;100344.25;5117693;27;45385;-64
2023/03/17 02:58:57;;;;;;;;;9.33;8.67;;;;;10.09;60.81;100335.69;5117687;27;45376;-64
2023/03/17 03:01:22;;;;;;;;;7.00;7.00;;;;;10.10;61.06;100334.75;5099347;27;45714;-64
2023/03/17 03:03:48;;;;;;;;;11.00;7.67;;;;;10.10;61.28;100334.75;5120748;27;45317;-64
2023/03/17 03:06:13;;;;;;;;;8.00;7.67;;;;;10.17;60.95;100345.13;5121067;27;45461;-64
2023/03/17 03:08:39;;;;;;;;;8.67;8.00;;;;;10.16;60.73;100349.50;5120873;27;45360;-64
2023/03/17 03:11:05;;;;;;;;;7.67;7.67;;;;;10.12;61.24;100345.22;5121173;27;45391;-64
2023/03/17 03:13:30;;;;;;;;;10.00;8.00;;;;;10.14;61.46;100343.44;5121342;27;45334;-64
2023/03/17 03:15:56;;;;;;;;;8.00;8.00;;;;;10.17;61.18;100347.75;5120860;27;46592;-63
2023/03/17 03:18:21;;;;;;;;;9.00;7.00;;;;;10.13;61.21;100339.06;5120029;27;45348;-64
2023/03/17 03:20:47;;;;;;;;;10.00;8.00;;;;;10.11;61.73;100347.00;5121009;27;45218;-64
2023/03/17 03:23:13;;;;;;;;;8.67;7.00;;;;;10.15;61.79;100352.19;5121355;27;45305;-64
2023/03/17 03:25:39;;;;;;;;;10.00;8.33;;;;;10.13;61.88;100336.44;5120766;27;47466;-64
2023/03/17 03:28:06;;;;;;;;;8.00;8.00;;;;;10.07;61.60;100328.72;5120857;27;45276;-64
2023/03/17 03:30:32;;;;;;;;;7.33;7.33;;;;;10.15;61.96;100347.81;5120738;27;45363;-64
2023/03/17 03:32:58;;;;;;;;;9.67;9.33;;;;;10.10;61.74;100340.00;5121070;27;45445;-64
2023/03/17 03:35:23;;;;;;;;;10.00;8.33;;;;;10.11;61.38;100348.78;5120767;27;45356;-63
2023/03/17 03:37:49;;;;;;;;;9.00;8.00;;;;;9.99;61.81;100354.34;5120722;27;45248;-64
2023/03/17 03:40:14;;;;;;;;;5.67;5.67;;;;;9.94;62.19;100350.06;5121025;27;45643;-64
2023/03/17 03:42:40;;;;;;;;;9.67;7.00;;;;;9.96;61.77;100336.03;5102343;27;45887;-64
2023/03/17 03:45:05;;;;;;;;;11.33;8.33;;;;;9.93;62.22;100335.22;5120376;27;47363;-63
2023/03/17 03:47:31;;;;;;;;;9.00;9.00;;;;;9.92;61.78;100330.84;5120712;27;45363;-64
2023/03/17 03:49:56;;;;;;;;;9.67;7.00;;;;;9.93;62.04;100332.59;5120661;27;45410;-64
2023/03/17 03:52:22;;;;;;;;;8.33;8.33;;;;;9.87;62.19;100334.50;5120949;27;45303;-64
2023/03/17 03:54:47;;;;;;;;;12.33;8.00;;;;;9.93;61.74;100343.13;5120248;27;47452;-64
2023/03/17 03:57:12;;;;;;;;;9.67;7.67;;;;;9.94;62.22;100349.22;5120510;27;45329;-64
2023/03/17 03:59:38;;;;;;;;;10.67;9.00;;;;;9.92;61.78;100346.63;5120570;27;45300;-64
2023/03/17 04:02:03;;;;;;;;;11.00;8.33;;;;;9.67;62.12;100307.00;5120462;27;45396;-64
2023/03/17 04:04:29;;;;;;;;;9.00;7.00;;;;;9.84;62.53;100361.75;5120450;27;45893;-64
2023/03/17 04:06:54;;;;;;;;;11.67;8.00;;;;;9.80;61.93;100362.72;5120242;27;45400;-64
2023/03/17 04:09:20;;;;;;;;;13.00;9.00;;;;;9.54;62.19;100319.59;5120029;27;45507;-64
2023/03/17 04:11:45;;;;;;;;;8.33;8.33;;;;;9.73;62.04;100350.63;5120457;27;45366;-64
2023/03/17 04:14:11;;;;;;;;;12.00;9.00;;;;;9.70;62.09;100348.97;5118661;27;46261;-64
2023/03/17 04:16:36;;;;;;;;;8.00;8.00;;;;;9.67;62.21;100350.81;5120062;27;45392;-64
2023/03/17 04:19:02;;;;;;;;;7.67;6.33;;;;;9.64;62.21;100356.13;5120215;27;45308;-64
2023/03/17 04:21:27;;;;;;;;;12.00;9.33;;;;;9.59;62.35;100356.25;5120319;27;45280;-64
2023/03/17 04:23:52;;;;;;;;;6.33;6.33;;;;;9.55;62.43;100337.06;5120183;27;46470;-64
2023/03/17 04:26:18;;;;;;;;;6.67;6.67;;;;;9.54;61.96;100340.63;5119932;27;45315;-64
2023/03/17 04:28:43;;;;;;;;;7.33;7.00;;;;;9.51;62.06;100339.81;5120171;27;45359;-64
2023/03/17 04:31:11;;;;;;;;;7.33;7.00;;;;;9.50;62.48;100341.59;5120044;27;45428;-64
2023/03/17 04:33:37;;;;;;;;;7.00;7.00;;;;;9.51;63.29;100340.69;5119639;27;46108;-64
2023/03/17 04:36:02;;;;;;;;;6.00;6.00;;;;;9.56;63.19;100335.31;5119746;27;45482;-64
2023/03/17 04:38:28;;;;;;;;;9.33;6.33;;;;;9.48;62.88;100327.59;5119707;27;45311;-64
2023/03/17 04:40:53;;;;;;;;;10.00;8.67;;;;;9.34;62.55;100321.84;5120056;27;45304;-64
2023/03/17 04:43:19;;;;;;;;;8.00;7.67;;;;;9.49;62.92;100350.38;5119639;27;45322;-64
2023/03/17 04:45:44;;;;;;;;;9.33;7.67;;;;;9.52;62.92;100337.13;5119502;27;45388;-64
2023/03/17 04:48:10;;;;;;;;;10.67;8.00;;;;;9.48;62.63;100337.25;5119786;27;45527;-64
2023/03/17 04:50:35;;;;;;;;;4.00;3.00;;;;;9.51;62.31;100345.94;5119748;27;45420;-64
2023/03/17 04:53:00;;;;;;;;;16.00;13.00;;;;;9.43;62.82;100321.63;5119614;27;45568;-64
2023/03/17 04:55:26;;;;;;;;;12.33;8.00;;;;;9.50;63.01;100335.47;5119403;27;45317;-64
2023/03/17 04:57:51;;;;;;;;;11.33;9.67;;;;;9.44;62.73;100330.34;5106071;27;45431;-64
2023/03/17 05:00:17;;;;;;;;;7.33;7.00;;;;;9.35;62.63;100324.44;5110222;27;45509;-64
2023/03/17 05:02:43;;;;;;;;;6.33;6.33;;;;;9.51;62.57;100342.44;5098563;27;46171;-64
2023/03/17 05:05:08;;;;;;;;;9.33;7.33;;;;;9.39;62.75;100323.44;5098957;27;45350;-64
2023/03/17 05:07:34;;;;;;;;;8.67;6.33;;;;;9.51;62.90;100337.19;5098615;27;45216;-64
2023/03/17 05:10:00;;;;;;;;;6.67;6.00;;;;;9.51;63.13;100331.94;5098955;27;45240;-64
2023/03/17 05:12:26;;;;;;;;;8.33;8.00;;;;;9.54;62.70;100326.59;5098461;27;46371;-64
2023/03/17 05:14:53;;;;;;;;;12.00;9.33;;;;;9.44;62.92;100304.06;5098310;27;45232;-64
2023/03/17 05:17:18;;;;;;;;;15.33;8.33;;;;;9.49;63.56;100305.69;5098845;27;45464;-64
2023/03/17 05:19:43;;;;;;;;;10.33;7.00;;;;;9.54;63.21;100330.09;5098765;27;45471;-64
2023/03/17 05:22:09;;;;;;;;;9.00;7.33;;;;;9.55;63.01;100338.84;5098328;27;45330;-64
2023/03/17 05:24:34;;;;;;;;;9.67;8.00;;;;;9.54;62.51;100339.72;5098515;27;45469;-63
2023/03/17 05:27:00;;;;;;;;;12.00;7.67;;;;;9.45;63.30;100329.47;5098168;27;45482;-64
2023/03/17 05:29:25;;;;;;;;;11.00;8.00;;;;;9.54;63.26;100345.00;5098695;27;45344;-64
2023/03/17 05:31:50;;;;;;;;;5.33;5.00;;;;;9.55;63.35;100350.19;5098162;27;46234;-64
2023/03/17 05:34:16;;;;;;;;;9.67;9.33;;;;;9.57;62.84;100344.94;5098135;27;45403;-64
2023/03/17 05:36:42;;;;;;;;;9.67;7.33;;;;;9.57;62.71;100337.06;5098506;27;45594;-63
2023/03/17 05:39:07;;;;;;;;;8.00;8.00;;;;;9.47;63.20;100319.75;5098372;27;45383;-64
2023/03/17 05:41:33;;;;;;;;;7.67;6.33;;;;;9.56;63.11;100332.69;5097977;27;46223;-64
2023/03/17 05:43:58;;;;;;;;;8.00;6.00;;;;;9.47;63.23;100320.66;5098092;27;45403;-64
2023/03/17 05:46:25;;;;;;;;;9.00;7.00;;;;;9.48;62.65;100326.75;5098219;27;45211;-64
2023/03/17 05:48:50;;;;;;;;;9.00;9.00;;;;;9.52;63.20;100339.78;5098450;27;45302;-64
2023/03/17 05:51:19;;;;;;;;;10.00;7.33;;;;;9.43;63.02;100313.72;5096955;27;46221;-65
2023/03/17 05:53:44;;;;;;;;;11.67;10.33;;;;;9.51;63.28;100318.78;5098182;27;45317;-64
2023/03/17 05:56:10;;;;;;;;;9.33;8.00;;;;;9.57;63.24;100313.41;5098068;27;45379;-63
2023/03/17 05:58:35;;;;;;;;;8.00;7.00;;;;;9.45;63.28;100298.78;5098259;27;45268;-64
2023/03/17 06:01:00;;;;;;;;;15.67;9.00;;;;;9.33;63.54;100280.72;5097816;27;45335;-63
2023/03/17 06:03:26;;;;;;;;;8.67;7.00;;;;;9.59;63.19;100322.09;5097911;27;45434;-64
2023/03/17 06:05:52;;;;;;;;;12.67;8.33;;;;;9.59;63.67;100325.56;5098161;27;45397;-63
2023/03/17 06:08:17;;;;;;;;;11.67;10.33;;;;;9.57;64.15;100318.66;5097826;27;45324;-64
2023/03/17 06:10:42;;;;;;;;;15.33;10.67;;;;;9.55;64.12;100316.03;5097588;27;46951;-63
2023/03/17 06:13:08;;;;;;;;;9.33;9.33;;;;;9.57;63.96;100313.41;5097866;27;45745;-63
2023/03/17 06:15:35;;;;;;;;;32.00;29.00;;;;;9.59;64.21;100316.84;5096885;27;45352;-63
2023/03/17 06:18:01;;;;;;;;;9.67;9.67;;;;;9.59;63.74;100311.59;5097930;27;45474;-64
2023/03/17 06:20:26;;;;;;;;;13.67;12.67;;;;;9.61;64.00;100308.91;5097434;27;45217;-64
2023/03/17 06:22:52;;;;;;;;;11.00;10.33;;;;;9.62;64.33;100310.66;5097447;27;45513;-64
2023/03/17 06:25:18;;;;;;;;;13.33;11.67;;;;;9.61;65.17;100299.25;5097868;27;45378;-64
2023/03/17 06:27:43;;;;;;;;;13.00;9.67;;;;;9.64;63.49;100301.78;5097922;27;45229;-64
2023/03/17 06:30:10;;;;;;;;;12.67;12.67;;;;;9.61;64.60;100299.25;5097612;27;45491;-64
2023/03/17 06:32:35;;;;;;;;;12.33;11.67;;;;;9.71;64.01;100316.50;5097331;27;45427;-64
2023/03/17 06:35:01;;;;;;;;;13.00;10.00;;;;;9.66;63.61;100321.03;5097621;27;45787;-64
2023/03/17 06:37:27;;;;;;;;;11.00;8.67;;;;;9.72;63.49;100330.53;5098542;27;45371;-64
2023/03/17 06:39:53;;;;;;;;;13.00;9.00;;;;;9.74;63.23;100332.22;5100843;27;46016;-64
2023/03/17 06:42:18;;;;;;;;;11.00;10.67;;;;;9.67;63.31;100328.03;5100972;27;45304;-64
2023/03/17 06:44:45;;;;;;;;;12.33;10.67;;;;;9.66;64.25;100334.19;5100902;27;45249;-64
2023/03/17 06:47:10;;;;;;;;;14.67;13.33;;;;;9.77;64.35;100347.03;5101230;27;45356;-64
2023/03/17 06:49:36;;;;;;;;;13.00;11.00;;;;;9.73;64.04;100330.50;5100869;27;46083;-64
2023/03/17 06:52:01;;;;;;;;;9.67;9.00;;;;;9.86;64.51;100345.94;5100766;27;45233;-64
2023/03/17 06:54:27;;;;;;;;;17.00;14.00;;;;;9.82;64.94;100329.38;5100922;27;45259;-65
2023/03/17 06:56:53;;;;;;;;;53.67;44.67;;;;;9.97;64.55;100341.25;5100937;27;45542;-64
2023/03/17 06:59:20;;;;;;;;;16.33;13.33;;;;;10.05;64.20;100333.13;5100478;27;46206;-64
2023/03/17 07:01:47;;;;;;;;;6.00;5.33;;;;;10.12;64.21;100334.69;5100308;27;45392;-64
2023/03/17 07:04:13;;;;;;;;;11.00;10.33;;;;;10.16;63.21;100331.09;5100608;27;45379;-64
2023/03/17 07:06:38;;;;;;;;;13.00;9.00;;;;;10.25;62.74;100341.38;5100854;27;45298;-64
2023/03/17 07:09:04;;;;;;;;;8.00;8.00;;;;;10.36;63.14;100348.13;5100184;27;46275;-65
2023/03/17 07:11:31;;;;;;;;;13.33;13.33;;;;;10.43;62.83;100355.81;5100462;27;45224;-64
2023/03/17 07:13:56;;;;;;;;;11.00;9.00;;;;;10.49;62.69;100348.66;5100609;27;45489;-64
2023/03/17 07:16:23;;;;;;;;;13.00;9.67;;;;;10.56;63.07;100353.69;5100491;27;45259;-64
2023/03/17 07:18:49;;;;;;;;;17.00;12.00;;;;;10.67;62.48;100345.44;5100319;27;46656;-64
2023/03/17 07:21:15;;;;;;;;;19.67;13.67;;;;;10.68;62.49;100349.81;5100110;27;45424;-64
2023/03/17 07:23:41;;;;;;;;;13.33;10.67;;;;;10.76;62.25;100344.31;5100598;27;45291;-64
2023/03/17 07:26:06;;;;;;;;;13.00;10.33;;;;;10.71;61.98;100346.25;5106748;27;45346;-64
2023/03/17 07:28:32;;;;;;;;;13.33;11.33;;;;;10.85;62.02;100358.97;5120515;27;46448;-64
2023/03/17 07:30:59;;;;;;;;;12.00;12.00;;;;;10.92;62.13;100360.50;5120877;27;45378;-64
2023/03/17 07:33:24;;;;;;;;;12.67;10.33;;;;;10.99;61.79;100362.06;5120571;27;45252;-64
2023/03/17 07:35:50;;;;;;;;;13.00;13.00;;;;;11.09;61.66;100358.22;5120960;27;45490;-64
2023/03/17 07:38:17;;;;;;;;;11.67;11.67;;;;;11.11;61.91;100352.91;5120812;27;46205;-64
2023/03/17 07:40:46;;;;;;;;;12.00;12.00;;;;;11.14;61.47;100343.16;5120537;27;45393;-64
2023/03/17 07:43:12;;;;;;;;;23.67;20.67;;;;;11.20;62.38;100330.69;5119795;27;45338;-64
2023/03/17 07:45:38;;;;;;;;;12.00;11.33;;;;;11.06;61.29;100291.59;5120464;27;45328;-64
2023/03/17 07:48:04;;;;;;;;;12.00;9.67;;;;;11.28;61.25;100336.56;5118832;27;46176;-64
2023/03/17 07:50:32;;;;;;;;;12.33;10.67;;;;;11.33;61.90;100350.47;5119330;27;45629;-64
2023/03/17 07:52:57;;;;;;;;;13.67;12.00;;;;;11.35;61.22;100332.81;5120396;27;45339;-64
2023/03/17 07:55:23;;;;;;;;;12.00;11.00;;;;;11.58;60.37;100339.13;5120573;27;45358;-64
2023/03/17 07:57:48;;;;;;;;;14.67;10.33;;;;;11.68;60.63;100340.53;5120109;27;46462;-64
2023/03/17 08:00:14;;;;;;;;;9.00;8.00;;;;;11.75;60.37;100339.41;5120409;27;45493;-64
2023/03/17 08:02:40;;;;;;;;;12.00;11.00;;;;;11.85;60.29;100354.00;5120248;27;45369;-65
2023/03/17 08:05:09;;;;;;;;;15.33;13.67;;;;;11.91;60.39;100362.59;5120536;27;45486;-64
2023/03/17 08:07:36;;;;;;;;;14.00;12.67;;;;;11.96;60.60;100364.19;5115111;27;46392;-64
2023/03/17 08:10:03;;;;;;;;;13.00;12.67;;;;;12.05;60.11;100372.72;5099475;27;45404;-65
2023/03/17 08:12:28;;;;;;;;;17.33;13.00;;;;;12.19;60.57;100381.00;5099619;27;45704;-65
2023/03/17 08:14:54;;;;;;;;;11.33;9.67;;;;;12.23;59.52;100371.19;5099546;27;45386;-65
2023/03/17 08:17:19;;;;;;;;;9.67;9.67;;;;;12.24;58.92;100373.78;5099166;27;46545;-64
2023/03/17 08:19:45;;;;;;;;;9.67;8.67;;;;;12.28;59.52;100377.19;5099205;27;45325;-64
2023/03/17 08:22:11;;;;;;;;;11.00;9.00;;;;;12.24;59.35;100365.88;5099413;27;45341;-64
2023/03/17 08:24:38;;;;;;;;;12.67;10.67;;;;;12.13;59.58;100350.41;5099429;27;45494;-64
2023/03/17 08:27:04;;;;;;;;;13.00;11.33;;;;;12.28;60.05;100383.31;5097864;27;45416;-64
2023/03/17 08:29:29;;;;;;;;;13.00;11.00;;;;;12.31;60.18;100395.56;5098935;27;45166;-64
2023/03/17 08:31:55;;;;;;;;;11.00;9.67;;;;;12.34;59.77;100393.69;5099189;27;45179;-64
2023/03/17 08:34:23;;;;;;;;;10.67;9.00;;;;;12.41;59.65;100386.38;5099575;27;45432;-64
2023/03/17 08:36:49;;;;;;;;;12.00;11.00;;;;;12.44;59.63;100383.63;5097682;27;45422;-64
2023/03/17 08:39:15;;;;;;;;;13.33;11.33;;;;;12.43;60.31;100386.31;5098936;27;45443;-64
2023/03/17 08:41:40;;;;;;;;;13.67;10.33;;;;;12.27;59.71;100386.00;5099266;27;45328;-64
2023/03/17 08:44:07;;;;;;;;;13.33;11.67;;;;;12.17;59.33;100385.50;5099176;27;45236;-64
2023/03/17 08:46:33;;;;;;;;;10.67;9.00;;;;;12.22;60.02;100419.66;5098887;27;45592;-64
2023/03/17 08:48:59;;;;;;;;;11.67;10.00;;;;;12.00;59.91;100391.34;5098743;27;45386;-64
2023/03/17 08:51:28;;;;;;;;;9.00;9.00;;;;;12.11;60.72;100388.34;5098867;27;45396;-64
2023/03/17 08:53:54;;;;;;;;;19.00;17.33;;;;;12.07;60.89;100411.34;5098821;27;45459;-65
2023/03/17 08:56:20;;;;;;;;;24.00;23.67;;;;;11.90;62.15;100395.19;5098605;27;46159;-65
2023/03/17 08:58:46;;;;;;;;;14.33;11.67;;;;;12.14;61.59;100433.97;5098568;27;45425;-65
2023/03/17 09:01:13;;;;;;;;;18.33;17.67;;;;;12.20;63.07;100422.34;5097814;27;45320;-65
2023/03/17 09:03:40;;;;;;;;;12.00;11.33;;;;;12.22;61.45;100419.66;5098782;27;45322;-64
2023/03/17 09:06:10;;;;;;;;;12.67;12.67;;;;;12.32;61.61;100434.25;5097462;27;46734;-65
2023/03/17 09:08:38;;;;;;;;;14.00;13.33;;;;;12.39;61.75;100424.31;5110625;27;45796;-64
2023/03/17 09:11:06;;;;;;;;;17.33;14.00;;;;;12.47;61.97;100417.00;5118862;27;45411;-64
2023/03/17 09:13:32;;;;;;;;;13.33;9.67;;;;;12.56;60.81;100399.94;5119451;27;45445;-64
2023/03/17 09:15:58;;;;;;;;;13.00;11.33;;;;;12.73;61.07;100397.53;5117883;27;45835;-64
2023/03/17 09:18:24;;;;;;;;;15.00;11.00;;;;;12.95;60.57;100384.38;5118717;27;45293;-64
2023/03/17 09:20:49;;;;;;;;;10.33;10.00;;;;;13.19;60.21;100390.50;5118613;27;45715;-64
2023/03/17 09:23:15;;;;;;;;;12.67;11.00;;;;;13.36;59.36;100386.34;5119227;27;45446;-65
2023/03/17 09:25:41;;;;;;;;;10.00;8.33;;;;;13.51;58.97;100377.78;5118238;27;45466;-65
2023/03/17 09:28:07;;;;;;;;;12.33;11.33;;;;;13.89;58.16;100375.31;5118675;27;45401;-64
2023/03/17 09:30:33;;;;;;;;;11.67;11.67;;;;;14.23;57.37;100360.63;5119055;27;45361;-64
2023/03/17 09:32:59;;;;;;;;;15.00;13.00;;;;;14.66;56.70;100370.25;5119120;27;45391;-64
2023/03/17 09:35:26;;;;;;;;;14.67;12.00;;;;;15.12;54.70;100360.16;5118593;27;46130;-64
2023/03/17 09:37:53;;;;;;;;;10.00;8.67;;;;;15.53;55.12;100367.03;5118768;27;45273;-64
2023/03/17 09:40:26;;;;;;;;;11.33;10.67;;;;;15.65;52.56;100369.06;5118578;27;45481;-64
2023/03/17 09:43:00;;;;;;;;;11.33;10.00;;;;;15.67;53.18;100367.19;5118871;27;45434;-64
2023/03/17 09:45:37;;;;;;;;;10.00;8.33;;;;;15.74;52.96;100367.72;5118674;27;46250;-64
2023/03/17 09:48:25;;;;;;;;;9.00;8.33;;;;;15.83;53.41;100369.97;5118365;27;45250;-64
2023/03/17 09:51:01;;;;;;;;;12.33;8.67;;;;;15.95;53.13;100371.13;5117658;27;45464;-64
2023/03/17 09:53:40;;;;;;;;;11.67;10.00;;;;;16.00;52.11;100377.94;5117511;27;45493;-64
2023/03/17 09:56:11;;;;;;;;;14.67;11.00;;;;;15.96;52.23;100383.47;5117282;27;46608;-64
2023/03/17 09:58:38;;;;;;;;;10.33;9.33;;;;;15.73;52.40;100340.34;5117258;27;45451;-64
2023/03/17 10:01:04;;;;;;;;;11.00;9.67;;;;;15.92;51.64;100356.22;5117491;27;45500;-64
2023/03/17 10:03:31;;;;;;;;;10.67;9.00;;;;;16.08;52.49;100376.69;5117520;27;45427;-64
2023/03/17 10:06:35;;;;;;;;;13.00;10.67;;;;;16.10;52.41;100358.84;5117471;27;46138;-64
2023/03/17 10:09:28;;;;;;;;;10.67;9.33;;;;;16.08;51.97;100356.28;5053711;28;45519;-64
2023/03/17 10:12:06;;;;;;;;;12.67;10.00;;;;;16.02;52.40;100349.50;5042863;28;45500;-64
2023/03/17 10:14:39;;;;;;;;;14.00;11.33;;;;;16.00;52.97;100350.50;5056695;28;45471;-64
2023/03/17 10:17:10;;;;;;;;;8.00;7.67;;;;;15.94;51.15;100350.81;5057667;28;46395;-64
2023/03/17 10:19:39;;;;;;;;;17.67;13.33;;;;;15.83;52.19;100364.66;5056721;28;45767;-64
2023/03/17 10:22:29;;;;;;;;;12.00;8.33;;;;;15.78;53.09;100353.38;5056966;28;45467;-64
2023/03/17 10:25:01;;;;;;;;;9.67;9.67;;;;;15.85;52.59;100373.41;5057832;28;45498;-65
2023/03/17 10:27:32;;;;;;;;;11.67;11.00;;;;;15.80;52.94;100362.13;5040297;28;46958;-65
2023/03/17 10:29:58;;;;;;;;;10.67;9.33;;;;;15.88;52.97;100352.00;5057450;28;45425;-65
2023/03/17 10:32:26;;;;;;;;;12.00;10.00;;;;;16.05;52.62;100348.47;5057126;28;45389;-65
2023/03/17 10:34:51;;;;;;;;;12.33;9.00;;;;;16.31;52.64;100348.91;5057769;28;45274;-65
2023/03/17 10:37:21;;;;;;;;;13.00;10.67;;;;;16.53;52.53;100361.91;5040300;28;48376;-65
2023/03/17 10:39:51;;;;;;;;;10.00;9.67;;;;;16.58;51.21;100359.84;5057279;28;45369;-65
2023/03/17 10:42:28;;;;;;;;;16.00;10.00;;;;;16.68;51.95;100365.53;5057275;28;45299;-65
2023/03/17 10:45:20;;;;;;;;;11.33;10.00;;;;;16.76;52.07;100352.69;5066172;27;45298;-65
2023/03/17 10:47:47;;;;;;;;;10.33;10.00;;;;;16.80;51.23;100346.25;5056499;28;47570;-64
2023/03/17 10:50:21;;;;;;;;;14.00;11.67;;;;;16.82;51.71;100331.06;5057091;28;45710;-65
2023/03/17 10:52:52;;;;;;;;;11.33;9.67;;;;;17.00;50.69;100333.66;5040239;28;45545;-64
2023/03/17 10:55:21;;;;;;;;;12.00;10.67;;;;;17.07;50.41;100335.03;5057514;28;45848;-65
2023/03/17 10:58:00;;;;;;;;;9.67;7.67;;;;;17.05;51.03;100329.81;5056361;28;45530;-65
2023/03/17 11:00:32;;;;;;;;;11.00;11.00;;;;;17.08;49.87;100333.22;5056372;28;45477;-65
2023/03/17 11:02:59;;;;;;;;;11.00;9.33;;;;;17.04;50.92;100345.84;5056620;28;45270;-64
2023/03/17 11:05:28;;;;;;;;;10.67;9.00;;;;;16.96;51.69;100340.09;5057164;28;45369;-64
2023/03/17 11:08:06;;;;;;;;;12.67;9.00;;;;;16.91;51.58;100335.03;5056995;28;46701;-64
2023/03/17 11:10:37;;;;;;;;;16.33;16.33;;;;;16.97;51.26;100345.31;5056823;28;46002;-64
2023/03/17 11:13:03;;;;;;;;;13.33;11.33;;;;;17.07;51.80;100347.50;5057309;28;45465;-64
2023/03/17 11:16:18;;;;;;;;;13.00;8.33;;;;;17.19;51.57;100344.13;5057663;28;45412;-65
2023/03/17 11:18:43;;;;;;;;;13.67;11.00;;;;;17.43;51.46;100335.66;5031728;28;46690;-64
2023/03/17 11:21:24;;;;;;;;;10.67;10.67;;;;;17.57;50.75;100322.41;5056308;28;45315;-65
2023/03/17 11:23:56;;;;;;;;;14.00;12.33;;;;;17.71;51.04;100330.44;5065486;27;45322;-64